sensor_id;sensor_type;location;lat;lon;timestamp;pressure;altitude;pressure_sealevel;temperature;humidity
49943;BME280;36011;53.362;58.948;2022-07-09T00:00:40;97003.34;;;16.16;62.77
49943;BME280;36011;53.362;58.948;2022-07-09T00:03:43;96999.75;;;16.17;62.93
49943;BME280;36011;53.362;58.948;2022-07-09T00:06:46;97000.84;;;16.14;62.68
49943;BME280;36011;53.362;58.948;2022-07-09T00:09:50;97008.81;;;16.14;62.09
49943;BME280;36011;53.362;58.948;2022-07-09T00:12:54;97004.44;;;16.13;62.38
49943;BME280;36011;53.362;58.948;2022-07-09T00:15:58;97009.53;;;16.16;62.27
49943;BME280;36011;53.362;58.948;2022-07-09T00:19:01;96993.91;;;16.23;62.01
49943;BME280;36011;53.362;58.948;2022-07-09T00:22:04;96995.91;;;16.31;62.30
49943;BME280;36011;53.362;58.948;2022-07-09T00:25:08;96999.44;;;16.41;62.92
49943;BME280;36011;53.362;58.948;2022-07-09T00:28:12;97001.31;;;16.50;63.08
49943;BME280;36011;53.362;58.948;2022-07-09T00:31:15;96998.41;;;16.53;62.45
49943;BME280;36011;53.362;58.948;2022-07-09T00:34:19;97013.34;;;16.54;61.69
49943;BME280;36011;53.362;58.948;2022-07-09T00:37:22;97013.47;;;16.53;61.18
49943;BME280;36011;53.362;58.948;2022-07-09T00:40:26;97019.47;;;16.45;61.70
49943;BME280;36011;53.362;58.948;2022-07-09T00:43:30;97011.63;;;16.44;62.11
49943;BME280;36011;53.362;58.948;2022-07-09T00:46:33;97010.97;;;16.51;64.85
49943;BME280;36011;53.362;58.948;2022-07-09T00:49:41;97012.53;;;16.64;62.08
49943;BME280;36011;53.362;58.948;2022-07-09T00:52:45;97018.22;;;16.80;61.05
49943;BME280;36011;53.362;58.948;2022-07-09T00:55:48;97016.31;;;16.92;61.36
49943;BME280;36011;53.362;58.948;2022-07-09T00:58:52;97020.41;;;17.05;62.13
49943;BME280;36011;53.362;58.948;2022-07-09T01:01:55;97023.09;;;17.25;61.20
49943;BME280;36011;53.362;58.948;2022-07-09T01:04:58;97024.25;;;17.42;60.33
49943;BME280;36011;53.362;58.948;2022-07-09T01:08:05;97023.97;;;17.55;59.95
49943;BME280;36011;53.362;58.948;2022-07-09T01:11:08;97026.50;;;17.66;60.00
49943;BME280;36011;53.362;58.948;2022-07-09T01:14:11;97019.13;;;17.79;59.69
49943;BME280;36011;53.362;58.948;2022-07-09T01:17:15;97018.56;;;17.95;59.05
49943;BME280;36011;53.362;58.948;2022-07-09T01:20:23;97028.63;;;18.01;59.16
49943;BME280;36011;53.362;58.948;2022-07-09T01:23:27;97027.63;;;18.02;59.25
49943;BME280;36011;53.362;58.948;2022-07-09T01:26:31;97034.09;;;18.00;59.32
49943;BME280;36011;53.362;58.948;2022-07-09T01:29:35;97034.66;;;17.93;59.53
49943;BME280;36011;53.362;58.948;2022-07-09T01:32:38;97031.56;;;17.88;60.17
49943;BME280;36011;53.362;58.948;2022-07-09T01:35:42;97033.28;;;17.89;60.01
49943;BME280;36011;53.362;58.948;2022-07-09T01:38:46;97043.06;;;17.89;59.65
49943;BME280;36011;53.362;58.948;2022-07-09T01:41:50;97042.63;;;17.93;59.97
49943;BME280;36011;53.362;58.948;2022-07-09T01:44:54;97045.19;;;17.95;60.14
49943;BME280;36011;53.362;58.948;2022-07-09T01:47:57;97039.53;;;18.08;60.12
49943;BME280;36011;53.362;58.948;2022-07-09T01:51:02;97041.06;;;18.30;60.02
49943;BME280;36011;53.362;58.948;2022-07-09T01:54:07;97043.34;;;18.62;60.00
49943;BME280;36011;53.362;58.948;2022-07-09T01:57:11;97049.84;;;18.97;60.04
49943;BME280;36011;53.362;58.948;2022-07-09T02:00:15;97043.06;;;19.30;58.24
49943;BME280;36011;53.362;58.948;2022-07-09T02:03:19;97051.97;;;19.66;57.59
49943;BME280;36011;53.362;58.948;2022-07-09T02:06:22;97065.16;;;20.04;56.41
49943;BME280;36011;53.362;58.948;2022-07-09T02:09:25;97057.25;;;20.38;56.23
49943;BME280;36011;53.362;58.948;2022-07-09T02:12:30;97059.09;;;20.55;56.24
49943;BME280;36011;53.362;58.948;2022-07-09T02:15:34;97054.88;;;20.79;55.81
49943;BME280;36011;53.362;58.948;2022-07-09T02:18:35;97054.97;;;20.95;55.43
49943;BME280;36011;53.362;58.948;2022-07-09T02:21:38;97044.97;;;21.05;55.26
49943;BME280;36011;53.362;58.948;2022-07-09T02:24:42;97054.00;;;21.04;55.73
49943;BME280;36011;53.362;58.948;2022-07-09T02:27:49;97049.66;;;21.12;55.63
49943;BME280;36011;53.362;58.948;2022-07-09T02:30:52;97056.97;;;21.36;55.02
49943;BME280;36011;53.362;58.948;2022-07-09T02:33:56;97047.34;;;21.59;54.76
49943;BME280;36011;53.362;58.948;2022-07-09T02:37:00;97057.41;;;21.73;54.83
49943;BME280;36011;53.362;58.948;2022-07-09T02:40:01;97051.59;;;21.94;54.19
49943;BME280;36011;53.362;58.948;2022-07-09T02:43:06;97045.59;;;22.25;53.56
49943;BME280;36011;53.362;58.948;2022-07-09T02:46:07;97065.66;;;22.62;52.73
49943;BME280;36011;53.362;58.948;2022-07-09T02:49:12;97057.06;;;22.83;52.21
49943;BME280;36011;53.362;58.948;2022-07-09T02:52:15;97068.47;;;22.77;52.61
49943;BME280;36011;53.362;58.948;2022-07-09T02:55:18;97075.03;;;22.50;52.99
49943;BME280;36011;53.362;58.948;2022-07-09T02:58:19;97084.59;;;22.28;53.55
49943;BME280;36011;53.362;58.948;2022-07-09T03:01:20;97067.00;;;22.17;53.55
49943;BME280;36011;53.362;58.948;2022-07-09T03:04:26;97064.78;;;21.96;54.04
49943;BME280;36011;53.362;58.948;2022-07-09T03:07:27;97073.00;;;21.78;54.56
49943;BME280;36011;53.362;58.948;2022-07-09T03:10:28;97073.97;;;21.69;54.86
49943;BME280;36011;53.362;58.948;2022-07-09T03:13:32;97061.91;;;21.65;54.81
49943;BME280;36011;53.362;58.948;2022-07-09T03:16:33;97080.00;;;21.71;54.75
49943;BME280;36011;53.362;58.948;2022-07-09T03:19:39;97067.00;;;22.01;54.02
49943;BME280;36011;53.362;58.948;2022-07-09T03:22:43;97067.34;;;22.30;53.29
49943;BME280;36011;53.362;58.948;2022-07-09T03:25:44;97077.72;;;22.50;53.20
49943;BME280;36011;53.362;58.948;2022-07-09T03:28:50;97083.75;;;22.76;52.64
49943;BME280;36011;53.362;58.948;2022-07-09T03:31:56;97084.00;;;23.06;52.19
49943;BME280;36011;53.362;58.948;2022-07-09T03:35:02;97094.31;;;23.34;51.94
49943;BME280;36011;53.362;58.948;2022-07-09T03:38:04;97087.81;;;23.59;51.51
49943;BME280;36011;53.362;58.948;2022-07-09T03:41:10;97090.75;;;23.81;51.10
49943;BME280;36011;53.362;58.948;2022-07-09T03:44:13;97100.03;;;24.01;50.88
49943;BME280;36011;53.362;58.948;2022-07-09T03:47:14;97096.31;;;24.25;50.42
49943;BME280;36011;53.362;58.948;2022-07-09T03:50:18;97093.19;;;24.59;49.48
49943;BME280;36011;53.362;58.948;2022-07-09T03:53:19;97089.06;;;24.86;49.19
49943;BME280;36011;53.362;58.948;2022-07-09T03:56:22;97092.34;;;25.12;48.69
49943;BME280;36011;53.362;58.948;2022-07-09T03:59:25;97084.13;;;25.28;48.07
49943;BME280;36011;53.362;58.948;2022-07-09T04:02:29;97089.00;;;25.39;47.90
49943;BME280;36011;53.362;58.948;2022-07-09T04:05:32;97094.03;;;25.42;48.00
49943;BME280;36011;53.362;58.948;2022-07-09T04:08:36;97091.06;;;25.37;48.11
49943;BME280;36011;53.362;58.948;2022-07-09T04:11:37;97099.69;;;25.33;47.86
49943;BME280;36011;53.362;58.948;2022-07-09T04:14:40;97090.50;;;25.27;47.96
49943;BME280;36011;53.362;58.948;2022-07-09T04:17:44;97089.38;;;25.06;47.91
49943;BME280;36011;53.362;58.948;2022-07-09T04:20:45;97081.38;;;24.98;47.83
49943;BME280;36011;53.362;58.948;2022-07-09T04:23:46;97083.97;;;25.06;47.71
49943;BME280;36011;53.362;58.948;2022-07-09T04:26:47;97084.75;;;25.15;47.03
49943;BME280;36011;53.362;58.948;2022-07-09T04:29:50;97092.81;;;25.30;47.21
49943;BME280;36011;53.362;58.948;2022-07-09T04:32:51;97099.88;;;25.46;47.01
49943;BME280;36011;53.362;58.948;2022-07-09T04:35:55;97090.88;;;25.53;46.51
49943;BME280;36011;53.362;58.948;2022-07-09T04:38:57;97090.31;;;25.43;46.18
49943;BME280;36011;53.362;58.948;2022-07-09T04:41:58;97101.91;;;25.44;46.05
49943;BME280;36011;53.362;58.948;2022-07-09T04:45:03;97083.16;;;25.36;46.70
49943;BME280;36011;53.362;58.948;2022-07-09T04:48:05;97089.44;;;25.58;46.42
49943;BME280;36011;53.362;58.948;2022-07-09T04:51:07;97099.16;;;25.88;45.40
49943;BME280;36011;53.362;58.948;2022-07-09T04:54:08;97098.22;;;26.17;44.91
49943;BME280;36011;53.362;58.948;2022-07-09T04:57:11;97106.38;;;26.46;44.45
49943;BME280;36011;53.362;58.948;2022-07-09T05:00:14;97091.84;;;26.47;44.35
49943;BME280;36011;53.362;58.948;2022-07-09T05:03:16;97103.81;;;26.37;44.46
49943;BME280;36011;53.362;58.948;2022-07-09T05:06:22;97105.72;;;26.43;43.99
49943;BME280;36011;53.362;58.948;2022-07-09T05:09:25;97105.63;;;26.52;44.26
49943;BME280;36011;53.362;58.948;2022-07-09T05:12:26;97107.88;;;26.70;43.85
49943;BME280;36011;53.362;58.948;2022-07-09T05:15:32;97107.66;;;26.99;43.45
49943;BME280;36011;53.362;58.948;2022-07-09T05:18:36;97107.94;;;27.46;42.45
49943;BME280;36011;53.362;58.948;2022-07-09T05:21:38;97102.13;;;27.84;41.91
49943;BME280;36011;53.362;58.948;2022-07-09T05:24:39;97100.28;;;28.04;41.48
49943;BME280;36011;53.362;58.948;2022-07-09T05:27:43;97104.47;;;28.13;41.12
49943;BME280;36011;53.362;58.948;2022-07-09T05:30:45;97110.31;;;28.24;40.79
49943;BME280;36011;53.362;58.948;2022-07-09T05:33:51;97104.97;;;28.50;40.48
49943;BME280;36011;53.362;58.948;2022-07-09T05:36:55;97097.03;;;29.02;39.69
49943;BME280;36011;53.362;58.948;2022-07-09T05:39:59;97092.75;;;29.52;38.61
49943;BME280;36011;53.362;58.948;2022-07-09T05:43:03;97103.72;;;29.84;38.34
49943;BME280;36011;53.362;58.948;2022-07-09T05:46:06;97101.69;;;30.11;38.24
49943;BME280;36011;53.362;58.948;2022-07-09T05:49:10;97092.31;;;30.07;37.87
49943;BME280;36011;53.362;58.948;2022-07-09T05:52:16;97085.09;;;29.94;37.73
49943;BME280;36011;53.362;58.948;2022-07-09T05:55:19;97086.88;;;30.46;37.41
49943;BME280;36011;53.362;58.948;2022-07-09T05:58:20;97100.63;;;32.95;33.09
49943;BME280;36011;53.362;58.948;2022-07-09T06:01:23;97098.34;;;37.97;26.34
49943;BME280;36011;53.362;58.948;2022-07-09T06:04:28;97107.50;;;42.07;23.95
49943;BME280;36011;53.362;58.948;2022-07-09T06:07:29;97107.06;;;44.74;22.73
49943;BME280;36011;53.362;58.948;2022-07-09T06:10:31;97102.72;;;46.41;21.20
49943;BME280;36011;53.362;58.948;2022-07-09T06:13:34;97105.19;;;48.27;20.83
49943;BME280;36011;53.362;58.948;2022-07-09T06:16:40;97095.00;;;47.63;20.89
49943;BME280;36011;53.362;58.948;2022-07-09T06:19:43;97088.56;;;47.72;20.95
49943;BME280;36011;53.362;58.948;2022-07-09T06:22:47;97092.66;;;49.79;18.29
49943;BME280;36011;53.362;58.948;2022-07-09T06:25:48;97086.84;;;51.49;15.08
49943;BME280;36011;53.362;58.948;2022-07-09T06:28:49;97082.53;;;52.19;16.02
49943;BME280;36011;53.362;58.948;2022-07-09T06:31:51;97081.22;;;53.56;16.04
49943;BME280;36011;53.362;58.948;2022-07-09T06:34:55;97077.38;;;54.78;10.19
49943;BME280;36011;53.362;58.948;2022-07-09T06:37:59;97079.66;;;55.88;14.20
49943;BME280;36011;53.362;58.948;2022-07-09T06:41:04;97081.25;;;56.51;8.91
49943;BME280;36011;53.362;58.948;2022-07-09T06:44:10;97080.31;;;57.17;12.87
49943;BME280;36011;53.362;58.948;2022-07-09T06:47:12;97081.13;;;57.31;12.77
49943;BME280;36011;53.362;58.948;2022-07-09T06:50:14;97074.28;;;57.57;12.25
49943;BME280;36011;53.362;58.948;2022-07-09T06:53:17;97069.44;;;57.51;12.63
49943;BME280;36011;53.362;58.948;2022-07-09T06:56:20;97065.28;;;58.23;11.79
49943;BME280;36011;53.362;58.948;2022-07-09T06:59:24;97067.63;;;58.47;11.07
49943;BME280;36011;53.362;58.948;2022-07-09T07:02:27;97066.94;;;58.17;9.21
49943;BME280;36011;53.362;58.948;2022-07-09T07:05:31;97052.44;;;57.90;8.99
49943;BME280;36011;53.362;58.948;2022-07-09T07:08:35;97048.38;;;57.30;9.93
49943;BME280;36011;53.362;58.948;2022-07-09T07:11:38;97045.97;;;57.54;9.45
49943;BME280;36011;53.362;58.948;2022-07-09T07:14:42;97052.44;;;57.65;9.26
49943;BME280;36011;53.362;58.948;2022-07-09T07:17:46;97053.03;;;58.59;9.36
49943;BME280;36011;53.362;58.948;2022-07-09T07:20:50;97044.66;;;59.07;8.97
49943;BME280;36011;53.362;58.948;2022-07-09T07:23:54;97044.84;;;59.83;8.32
49943;BME280;36011;53.362;58.948;2022-07-09T07:26:57;97045.06;;;60.37;6.71
49943;BME280;36011;53.362;58.948;2022-07-09T07:30:00;97050.47;;;59.90;8.23
49943;BME280;36011;53.362;58.948;2022-07-09T07:33:04;97037.53;;;60.24;6.29
49943;BME280;36011;53.362;58.948;2022-07-09T07:36:07;97038.06;;;60.11;7.51
49943;BME280;36011;53.362;58.948;2022-07-09T07:39:10;97026.78;;;60.04;6.08
49943;BME280;36011;53.362;58.948;2022-07-09T07:42:14;97023.78;;;60.53;7.74
49943;BME280;36011;53.362;58.948;2022-07-09T07:45:17;97026.50;;;60.91;7.12
49943;BME280;36011;53.362;58.948;2022-07-09T07:48:20;97018.03;;;61.14;6.86
49943;BME280;36011;53.362;58.948;2022-07-09T07:51:29;97017.22;;;61.14;6.03
49943;BME280;36011;53.362;58.948;2022-07-09T07:54:34;97009.13;;;61.12;5.84
49943;BME280;36011;53.362;58.948;2022-07-09T07:57:38;96997.75;;;59.89;6.22
49943;BME280;36011;53.362;58.948;2022-07-09T08:00:41;96986.88;;;57.92;6.53
49943;BME280;36011;53.362;58.948;2022-07-09T08:03:45;96971.19;;;56.98;7.53
49943;BME280;36011;53.362;58.948;2022-07-09T08:06:47;96962.16;;;56.45;7.84
49943;BME280;36011;53.362;58.948;2022-07-09T08:09:51;96965.09;;;57.10;7.53
49943;BME280;36011;53.362;58.948;2022-07-09T08:12:55;96965.75;;;58.21;7.03
49943;BME280;36011;53.362;58.948;2022-07-09T08:16:00;96959.19;;;59.50;6.36
49943;BME280;36011;53.362;58.948;2022-07-09T08:19:04;96961.72;;;59.41;6.41
49943;BME280;36011;53.362;58.948;2022-07-09T08:22:10;96948.06;;;59.29;5.00
49943;BME280;36011;53.362;58.948;2022-07-09T08:25:15;96949.72;;;59.26;6.29
49943;BME280;36011;53.362;58.948;2022-07-09T08:28:19;96948.06;;;59.29;6.60
49943;BME280;36011;53.362;58.948;2022-07-09T08:31:21;96936.78;;;59.18;6.11
49943;BME280;36011;53.362;58.948;2022-07-09T08:34:27;96940.47;;;59.60;6.54
49943;BME280;36011;53.362;58.948;2022-07-09T08:37:30;96933.94;;;58.70;6.05
49943;BME280;36011;53.362;58.948;2022-07-09T08:40:40;96923.88;;;56.66;6.99
49943;BME280;36011;53.362;58.948;2022-07-09T08:43:43;96914.13;;;56.53;7.42
49943;BME280;36011;53.362;58.948;2022-07-09T08:46:47;96908.78;;;56.15;7.32
49943;BME280;36011;53.362;58.948;2022-07-09T08:49:50;96907.72;;;56.56;6.69
49943;BME280;36011;53.362;58.948;2022-07-09T08:52:57;96902.03;;;57.42;6.81
49943;BME280;36011;53.362;58.948;2022-07-09T08:56:02;96905.81;;;58.27;6.37
49943;BME280;36011;53.362;58.948;2022-07-09T08:59:06;96903.75;;;58.38;6.39
49943;BME280;36011;53.362;58.948;2022-07-09T09:02:10;96895.50;;;57.70;6.02
49943;BME280;36011;53.362;58.948;2022-07-09T09:05:17;96889.88;;;56.34;6.63
49943;BME280;36011;53.362;58.948;2022-07-09T09:08:21;96882.88;;;55.22;7.20
49943;BME280;36011;53.362;58.948;2022-07-09T09:11:28;96883.97;;;55.62;7.43
49943;BME280;36011;53.362;58.948;2022-07-09T09:14:34;96882.16;;;56.20;7.11
49943;BME280;36011;53.362;58.948;2022-07-09T09:17:46;96899.66;;;56.72;6.63
49943;BME280;36011;53.362;58.948;2022-07-09T09:20:50;96880.56;;;54.39;7.74
49943;BME280;36011;53.362;58.948;2022-07-09T09:23:55;96867.31;;;52.26;8.87
49943;BME280;36011;53.362;58.948;2022-07-09T09:26:58;96863.09;;;52.82;8.82
49943;BME280;36011;53.362;58.948;2022-07-09T09:30:02;96865.41;;;53.26;8.22
49943;BME280;36011;53.362;58.948;2022-07-09T09:33:06;96859.66;;;53.72;7.74
49943;BME280;36011;53.362;58.948;2022-07-09T09:36:09;96858.91;;;54.50;7.82
49943;BME280;36011;53.362;58.948;2022-07-09T09:42:23;96859.03;;;53.29;7.87
49943;BME280;36011;53.362;58.948;2022-07-09T09:45:29;96850.78;;;50.76;9.52
49943;BME280;36011;53.362;58.948;2022-07-09T09:48:35;96848.75;;;50.29;9.64
49943;BME280;36011;53.362;58.948;2022-07-09T09:55:03;96845.41;;;48.90;10.03
49943;BME280;36011;53.362;58.948;2022-07-09T09:58:06;96834.66;;;49.29;9.89
49943;BME280;36011;53.362;58.948;2022-07-09T10:01:13;96833.56;;;50.30;9.30
49943;BME280;36011;53.362;58.948;2022-07-09T10:04:16;96827.09;;;51.25;8.86
49943;BME280;36011;53.362;58.948;2022-07-09T10:07:21;96829.28;;;51.51;8.92
49943;BME280;36011;53.362;58.948;2022-07-09T10:10:25;96829.53;;;51.27;9.00
49943;BME280;36011;53.362;58.948;2022-07-09T10:13:29;96828.41;;;49.88;9.75
49943;BME280;36011;53.362;58.948;2022-07-09T10:19:37;96836.41;;;48.15;10.85
49943;BME280;36011;53.362;58.948;2022-07-09T10:22:42;96838.22;;;47.56;11.16
49943;BME280;36011;53.362;58.948;2022-07-09T10:25:50;96844.81;;;47.01;11.43
49943;BME280;36011;53.362;58.948;2022-07-09T10:28:58;96849.69;;;43.89;13.17
49943;BME280;36011;53.362;58.948;2022-07-09T10:32:02;96844.13;;;40.05;15.87
49943;BME280;36011;53.362;58.948;2022-07-09T10:35:06;96845.81;;;37.29;18.24
49943;BME280;36011;53.362;58.948;2022-07-09T10:38:09;96848.81;;;35.04;20.03
49943;BME280;36011;53.362;58.948;2022-07-09T10:41:20;96862.13;;;33.67;21.14
49943;BME280;36011;53.362;58.948;2022-07-09T10:44:33;96875.53;;;32.24;24.00
49943;BME280;36011;53.362;58.948;2022-07-09T10:47:37;96874.34;;;30.75;25.84
49943;BME280;36011;53.362;58.948;2022-07-09T10:50:41;96882.13;;;30.10;26.51
49943;BME280;36011;53.362;58.948;2022-07-09T10:53:45;96884.78;;;28.83;29.17
49943;BME280;36011;53.362;58.948;2022-07-09T10:56:49;96896.78;;;27.75;31.39
49943;BME280;36011;53.362;58.948;2022-07-09T10:59:53;96896.78;;;27.49;33.94
49943;BME280;36011;53.362;58.948;2022-07-09T11:03:00;96909.69;;;26.99;33.98
49943;BME280;36011;53.362;58.948;2022-07-09T11:06:07;96898.47;;;26.54;33.48
49943;BME280;36011;53.362;58.948;2022-07-09T11:09:12;96902.84;;;25.98;35.02
49943;BME280;36011;53.362;58.948;2022-07-09T11:12:19;96902.13;;;25.83;35.02
49943;BME280;36011;53.362;58.948;2022-07-09T11:15:22;96892.88;;;25.71;36.11
49943;BME280;36011;53.362;58.948;2022-07-09T11:18:26;96880.94;;;25.16;37.03
49943;BME280;36011;53.362;58.948;2022-07-09T11:21:29;96867.22;;;24.96;37.63
49943;BME280;36011;53.362;58.948;2022-07-09T11:24:32;96858.78;;;25.35;37.42
49943;BME280;36011;53.362;58.948;2022-07-09T11:27:39;96841.84;;;25.69;36.86
49943;BME280;36011;53.362;58.948;2022-07-09T11:30:43;96842.13;;;26.03;36.71
49943;BME280;36011;53.362;58.948;2022-07-09T11:33:46;96830.25;;;27.35;34.79
49943;BME280;36011;53.362;58.948;2022-07-09T11:37:08;96825.19;;;28.31;33.81
49943;BME280;36011;53.362;58.948;2022-07-09T11:40:15;96829.22;;;28.67;34.77
49943;BME280;36011;53.362;58.948;2022-07-09T11:43:20;96827.47;;;28.86;34.24
49943;BME280;36011;53.362;58.948;2022-07-09T11:46:24;96826.13;;;29.08;34.14
49943;BME280;36011;53.362;58.948;2022-07-09T11:49:46;96817.03;;;29.28;34.14
49943;BME280;36011;53.362;58.948;2022-07-09T11:52:51;96816.41;;;29.26;34.71
49943;BME280;36011;53.362;58.948;2022-07-09T11:55:58;96816.34;;;29.39;34.96
49943;BME280;36011;53.362;58.948;2022-07-09T11:59:03;96820.97;;;30.32;33.78
49943;BME280;36011;53.362;58.948;2022-07-09T12:02:06;96821.25;;;31.40;32.41
49943;BME280;36011;53.362;58.948;2022-07-09T12:05:09;96817.31;;;32.25;31.64
49943;BME280;36011;53.362;58.948;2022-07-09T12:08:12;96816.13;;;32.84;31.08
49943;BME280;36011;53.362;58.948;2022-07-09T12:11:35;96821.84;;;33.12;30.94
49943;BME280;36011;53.362;58.948;2022-07-09T12:14:56;96820.19;;;33.11;30.87
49943;BME280;36011;53.362;58.948;2022-07-09T12:18:18;96829.59;;;32.62;31.18
49943;BME280;36011;53.362;58.948;2022-07-09T12:21:40;96822.53;;;31.91;32.39
49943;BME280;36011;53.362;58.948;2022-07-09T12:25:01;96815.47;;;31.06;33.22
49943;BME280;36011;53.362;58.948;2022-07-09T12:28:23;96816.22;;;30.46;34.07
49943;BME280;36011;53.362;58.948;2022-07-09T12:31:44;96810.16;;;30.81;32.97
49943;BME280;36011;53.362;58.948;2022-07-09T12:35:05;96817.97;;;31.61;32.07
49943;BME280;36011;53.362;58.948;2022-07-09T12:38:27;96822.25;;;31.81;31.34
49943;BME280;36011;53.362;58.948;2022-07-09T12:41:31;96826.31;;;32.13;30.96
49943;BME280;36011;53.362;58.948;2022-07-09T12:44:35;96826.56;;;32.47;30.63
49943;BME280;36011;53.362;58.948;2022-07-09T12:47:39;96818.19;;;32.65;30.25
49943;BME280;36011;53.362;58.948;2022-07-09T12:50:42;96821.31;;;32.86;29.88
49943;BME280;36011;53.362;58.948;2022-07-09T12:53:45;96817.84;;;33.02;29.47
49943;BME280;36011;53.362;58.948;2022-07-09T12:56:48;96817.56;;;33.16;29.06
49943;BME280;36011;53.362;58.948;2022-07-09T12:59:53;96819.84;;;33.36;28.90
49943;BME280;36011;53.362;58.948;2022-07-09T13:02:57;96806.63;;;33.44;28.65
49943;BME280;36011;53.362;58.948;2022-07-09T13:06:00;96808.16;;;33.40;28.78
49943;BME280;36011;53.362;58.948;2022-07-09T13:09:04;96811.22;;;33.27;29.11
49943;BME280;36011;53.362;58.948;2022-07-09T13:12:08;96806.47;;;33.05;29.82
49943;BME280;36011;53.362;58.948;2022-07-09T13:15:11;96798.91;;;32.67;29.99
49943;BME280;36011;53.362;58.948;2022-07-09T13:18:15;96798.34;;;32.30;30.61
49943;BME280;36011;53.362;58.948;2022-07-09T13:21:20;96804.97;;;31.87;31.45
49943;BME280;36011;53.362;58.948;2022-07-09T13:24:24;96795.31;;;31.25;32.55
49943;BME280;36011;53.362;58.948;2022-07-09T13:27:28;96795.09;;;30.97;33.76
49943;BME280;36011;53.362;58.948;2022-07-09T13:30:31;96787.28;;;30.70;33.59
49943;BME280;36011;53.362;58.948;2022-07-09T13:33:36;96781.13;;;30.26;33.89
49943;BME280;36011;53.362;58.948;2022-07-09T13:36:39;96775.34;;;29.79;34.23
49943;BME280;36011;53.362;58.948;2022-07-09T13:39:42;96789.41;;;29.44;34.36
49943;BME280;36011;53.362;58.948;2022-07-09T13:42:46;96779.81;;;29.17;34.46
49943;BME280;36011;53.362;58.948;2022-07-09T13:45:49;96774.47;;;29.03;35.50
49943;BME280;36011;53.362;58.948;2022-07-09T13:48:52;96778.31;;;28.51;37.73
49943;BME280;36011;53.362;58.948;2022-07-09T13:51:55;96769.53;;;27.84;39.18
49943;BME280;36011;53.362;58.948;2022-07-09T13:55:00;96763.72;;;27.47;40.64
49943;BME280;36011;53.362;58.948;2022-07-09T13:58:03;96758.28;;;27.07;41.08
49943;BME280;36011;53.362;58.948;2022-07-09T14:01:06;96760.31;;;26.78;41.47
49943;BME280;36011;53.362;58.948;2022-07-09T14:04:10;96762.09;;;26.58;42.41
49943;BME280;36011;53.362;58.948;2022-07-09T14:07:14;96751.44;;;26.36;42.48
49943;BME280;36011;53.362;58.948;2022-07-09T14:10:17;96761.75;;;26.26;42.91
49943;BME280;36011;53.362;58.948;2022-07-09T14:13:20;96761.34;;;26.23;43.49
49943;BME280;36011;53.362;58.948;2022-07-09T14:16:22;96759.72;;;26.28;43.45
49943;BME280;36011;53.362;58.948;2022-07-09T14:19:25;96763.25;;;26.35;42.88
49943;BME280;36011;53.362;58.948;2022-07-09T14:22:29;96771.81;;;26.46;42.54
49943;BME280;36011;53.362;58.948;2022-07-09T14:25:33;96771.03;;;26.52;42.33
49943;BME280;36011;53.362;58.948;2022-07-09T14:28:38;96784.06;;;26.48;42.46
49943;BME280;36011;53.362;58.948;2022-07-09T14:31:42;96785.28;;;26.39;42.71
49943;BME280;36011;53.362;58.948;2022-07-09T14:34:45;96789.78;;;26.32;43.01
49943;BME280;36011;53.362;58.948;2022-07-09T14:37:48;96790.78;;;26.24;42.52
49943;BME280;36011;53.362;58.948;2022-07-09T14:40:52;96793.69;;;26.16;42.40
49943;BME280;36011;53.362;58.948;2022-07-09T14:43:56;96784.69;;;26.02;42.52
49943;BME280;36011;53.362;58.948;2022-07-09T14:46:59;96781.91;;;25.89;42.73
49943;BME280;36011;53.362;58.948;2022-07-09T14:50:04;96779.94;;;25.76;42.44
49943;BME280;36011;53.362;58.948;2022-07-09T14:53:07;96793.34;;;25.69;43.11
49943;BME280;36011;53.362;58.948;2022-07-09T14:56:10;96789.94;;;25.54;43.40
49943;BME280;36011;53.362;58.948;2022-07-09T14:59:13;96786.56;;;25.45;43.73
49943;BME280;36011;53.362;58.948;2022-07-09T15:02:22;96798.78;;;25.20;43.88
49943;BME280;36011;53.362;58.948;2022-07-09T15:05:25;96795.66;;;25.01;44.07
49943;BME280;36011;53.362;58.948;2022-07-09T15:08:28;96801.66;;;24.82;44.36
49943;BME280;36011;53.362;58.948;2022-07-09T15:11:32;96794.03;;;24.64;44.92
49943;BME280;36011;53.362;58.948;2022-07-09T15:14:36;96802.13;;;24.49;44.48
49943;BME280;36011;53.362;58.948;2022-07-09T15:17:40;96793.69;;;24.37;44.75
49943;BME280;36011;53.362;58.948;2022-07-09T15:20:44;96798.06;;;24.24;44.82
49943;BME280;36011;53.362;58.948;2022-07-09T15:23:47;96796.84;;;24.11;44.81
49943;BME280;36011;53.362;58.948;2022-07-09T15:26:50;96800.22;;;23.98;45.16
49943;BME280;36011;53.362;58.948;2022-07-09T15:29:54;96803.53;;;23.86;45.21
49943;BME280;36011;53.362;58.948;2022-07-09T15:32:57;96806.88;;;23.73;45.86
49943;BME280;36011;53.362;58.948;2022-07-09T15:36:01;96807.44;;;23.60;46.21
49943;BME280;36011;53.362;58.948;2022-07-09T15:39:04;96811.91;;;23.53;45.74
49943;BME280;36011;53.362;58.948;2022-07-09T15:42:08;96810.94;;;23.46;46.16
49943;BME280;36011;53.362;58.948;2022-07-09T15:45:13;96809.00;;;23.40;45.73
49943;BME280;36011;53.362;58.948;2022-07-09T15:48:16;96817.56;;;23.35;45.65
49943;BME280;36011;53.362;58.948;2022-07-09T15:51:24;96812.94;;;23.29;45.89
49943;BME280;36011;53.362;58.948;2022-07-09T15:54:27;96812.00;;;23.22;46.15
49943;BME280;36011;53.362;58.948;2022-07-09T15:57:30;96816.31;;;23.08;46.76
49943;BME280;36011;53.362;58.948;2022-07-09T16:00:33;96814.38;;;22.94;46.38
49943;BME280;36011;53.362;58.948;2022-07-09T16:03:37;96817.63;;;22.81;46.98
49943;BME280;36011;53.362;58.948;2022-07-09T16:06:41;96815.69;;;22.67;47.11
49943;BME280;36011;53.362;58.948;2022-07-09T16:09:45;96819.59;;;22.56;47.32
49943;BME280;36011;53.362;58.948;2022-07-09T16:12:48;96822.16;;;22.49;47.51
49943;BME280;36011;53.362;58.948;2022-07-09T16:15:52;96819.34;;;22.42;47.61